sensor_id;sensor_type;location;lat;lon;timestamp;temperature;humidity
23289;DHT22;11813;50.834;4.280;2022-08-23T00:02:12;21.00;99.90
23289;DHT22;11813;50.834;4.280;2022-08-23T00:04:40;21.00;99.90
23289;DHT22;11813;50.834;4.280;2022-08-23T00:07:10;21.00;99.90
23289;DHT22;11813;50.834;4.280;2022-08-23T00:09:36;21.00;99.90
23289;DHT22;11813;50.834;4.280;2022-08-23T00:12:10;21.00;99.90
23289;DHT22;11813;50.834;4.280;2022-08-23T00:14:39;21.00;99.90
23289;DHT22;11813;50.834;4.280;2022-08-23T00:17:07;21.10;99.90
23289;DHT22;11813;50.834;4.280;2022-08-23T00:19:33;21.10;99.90
23289;DHT22;11813;50.834;4.280;2022-08-23T00:21:59;21.20;99.90
23289;DHT22;11813;50.834;4.280;2022-08-23T00:24:25;21.20;99.90
23289;DHT22;11813;50.834;4.280;2022-08-23T00:27:07;21.20;99.90
23289;DHT22;11813;50.834;4.280;2022-08-23T00:31:58;21.10;99.90
23289;DHT22;11813;50.834;4.280;2022-08-23T00:34:24;21.00;99.90
23289;DHT22;11813;50.834;4.280;2022-08-23T00:36:51;21.00;99.90
23289;DHT22;11813;50.834;4.280;2022-08-23T00:39:18;20.90;99.90
23289;DHT22;11813;50.834;4.280;2022-08-23T00:41:46;20.90;99.90
23289;DHT22;11813;50.834;4.280;2022-08-23T00:44:23;21.00;99.90
23289;DHT22;11813;50.834;4.280;2022-08-23T00:47:08;20.90;99.90
23289;DHT22;11813;50.834;4.280;2022-08-23T00:50:02;21.00;99.90
23289;DHT22;11813;50.834;4.280;2022-08-23T00:52:39;21.00;99.90
23289;DHT22;11813;50.834;4.280;2022-08-23T00:55:06;20.90;99.90
23289;DHT22;11813;50.834;4.280;2022-08-23T00:57:32;20.80;99.90
23289;DHT22;11813;50.834;4.280;2022-08-23T00:59:59;20.80;99.90
23289;DHT22;11813;50.834;4.280;2022-08-23T01:02:24;20.80;99.90
23289;DHT22;11813;50.834;4.280;2022-08-23T01:04:55;20.80;99.90
23289;DHT22;11813;50.834;4.280;2022-08-23T01:07:40;20.80;99.90
23289;DHT22;11813;50.834;4.280;2022-08-23T01:12:57;20.80;99.90
23289;DHT22;11813;50.834;4.280;2022-08-23T01:16:02;20.80;99.90
23289;DHT22;11813;50.834;4.280;2022-08-23T01:18:30;20.80;99.90
23289;DHT22;11813;50.834;4.280;2022-08-23T01:23:41;20.70;99.90
23289;DHT22;11813;50.834;4.280;2022-08-23T01:26:08;20.70;99.90
23289;DHT22;11813;50.834;4.280;2022-08-23T01:28:35;20.70;99.90
23289;DHT22;11813;50.834;4.280;2022-08-23T01:31:01;20.60;99.90
23289;DHT22;11813;50.834;4.280;2022-08-23T01:33:28;20.60;99.90
23289;DHT22;11813;50.834;4.280;2022-08-23T01:35:55;20.60;99.90
23289;DHT22;11813;50.834;4.280;2022-08-23T01:38:23;20.60;99.90
23289;DHT22;11813;50.834;4.280;2022-08-23T01:40:49;20.50;99.90
23289;DHT22;11813;50.834;4.280;2022-08-23T01:43:16;20.50;99.90
23289;DHT22;11813;50.834;4.280;2022-08-23T01:45:45;20.60;99.90
23289;DHT22;11813;50.834;4.280;2022-08-23T01:48:12;20.50;99.90
23289;DHT22;11813;50.834;4.280;2022-08-23T01:50:38;20.50;99.90
23289;DHT22;11813;50.834;4.280;2022-08-23T01:53:04;20.50;99.90
23289;DHT22;11813;50.834;4.280;2022-08-23T01:55:30;20.50;99.90
23289;DHT22;11813;50.834;4.280;2022-08-23T01:57:58;20.50;99.90
23289;DHT22;11813;50.834;4.280;2022-08-23T02:00:34;20.50;99.90
23289;DHT22;11813;50.834;4.280;2022-08-23T02:03:00;20.40;99.90
23289;DHT22;11813;50.834;4.280;2022-08-23T02:05:30;20.00;99.90
23289;DHT22;11813;50.834;4.280;2022-08-23T02:07:56;19.90;99.90
23289;DHT22;11813;50.834;4.280;2022-08-23T02:10:41;19.90;99.90
23289;DHT22;11813;50.834;4.280;2022-08-23T02:13:07;19.80;99.90
23289;DHT22;11813;50.834;4.280;2022-08-23T02:15:33;19.80;99.90
23289;DHT22;11813;50.834;4.280;2022-08-23T02:17:59;19.80;99.90
23289;DHT22;11813;50.834;4.280;2022-08-23T02:20:24;19.80;99.90
23289;DHT22;11813;50.834;4.280;2022-08-23T02:22:50;19.80;99.90
23289;DHT22;11813;50.834;4.280;2022-08-23T02:25:16;19.80;99.90
23289;DHT22;11813;50.834;4.280;2022-08-23T02:27:41;19.90;99.90
23289;DHT22;11813;50.834;4.280;2022-08-23T02:30:07;19.80;99.90
23289;DHT22;11813;50.834;4.280;2022-08-23T02:32:33;19.80;99.90
23289;DHT22;11813;50.834;4.280;2022-08-23T02:34:59;19.80;99.90
23289;DHT22;11813;50.834;4.280;2022-08-23T02:37:25;19.80;99.90
23289;DHT22;11813;50.834;4.280;2022-08-23T02:39:50;19.80;99.90
23289;DHT22;11813;50.834;4.280;2022-08-23T02:42:16;19.80;99.90
23289;DHT22;11813;50.834;4.280;2022-08-23T02:44:42;19.80;99.90
23289;DHT22;11813;50.834;4.280;2022-08-23T02:47:08;19.70;99.90
23289;DHT22;11813;50.834;4.280;2022-08-23T02:49:36;19.70;99.90
23289;DHT22;11813;50.834;4.280;2022-08-23T02:52:03;19.60;99.90
23289;DHT22;11813;50.834;4.280;2022-08-23T02:54:28;19.60;99.90
23289;DHT22;11813;50.834;4.280;2022-08-23T02:56:54;19.60;99.90
23289;DHT22;11813;50.834;4.280;2022-08-23T02:59:20;19.70;99.90
23289;DHT22;11813;50.834;4.280;2022-08-23T03:01:45;19.60;99.90
23289;DHT22;11813;50.834;4.280;2022-08-23T03:04:11;19.60;99.90
23289;DHT22;11813;50.834;4.280;2022-08-23T03:06:37;19.50;99.90
23289;DHT22;11813;50.834;4.280;2022-08-23T03:09:04;19.50;99.90
23289;DHT22;11813;50.834;4.280;2022-08-23T03:11:30;19.50;99.90
23289;DHT22;11813;50.834;4.280;2022-08-23T03:13:56;19.40;99.90
23289;DHT22;11813;50.834;4.280;2022-08-23T03:16:23;19.30;99.90
23289;DHT22;11813;50.834;4.280;2022-08-23T03:18:49;19.20;99.90
23289;DHT22;11813;50.834;4.280;2022-08-23T03:21:16;19.20;99.90
23289;DHT22;11813;50.834;4.280;2022-08-23T03:23:42;19.20;99.90
23289;DHT22;11813;50.834;4.280;2022-08-23T03:26:09;19.10;99.90
23289;DHT22;11813;50.834;4.280;2022-08-23T03:28:37;19.20;99.90
23289;DHT22;11813;50.834;4.280;2022-08-23T03:31:04;19.20;99.90
23289;DHT22;11813;50.834;4.280;2022-08-23T03:33:30;19.10;99.90
23289;DHT22;11813;50.834;4.280;2022-08-23T03:35:59;19.20;99.90
23289;DHT22;11813;50.834;4.280;2022-08-23T03:38:25;19.10;99.90
23289;DHT22;11813;50.834;4.280;2022-08-23T03:40:51;19.10;99.90
23289;DHT22;11813;50.834;4.280;2022-08-23T03:43:18;19.00;99.90
23289;DHT22;11813;50.834;4.280;2022-08-23T03:45:44;19.00;99.90
23289;DHT22;11813;50.834;4.280;2022-08-23T03:48:10;18.90;99.90
23289;DHT22;11813;50.834;4.280;2022-08-23T03:50:35;18.90;99.90
23289;DHT22;11813;50.834;4.280;2022-08-23T03:53:01;18.90;99.90
23289;DHT22;11813;50.834;4.280;2022-08-23T03:55:27;18.90;99.90
23289;DHT22;11813;50.834;4.280;2022-08-23T03:57:53;19.00;99.90
23289;DHT22;11813;50.834;4.280;2022-08-23T04:00:18;18.90;99.90
23289;DHT22;11813;50.834;4.280;2022-08-23T04:02:44;19.00;99.90
23289;DHT22;11813;50.834;4.280;2022-08-23T04:05:11;19.00;99.90
23289;DHT22;11813;50.834;4.280;2022-08-23T04:07:37;18.90;99.90
23289;DHT22;11813;50.834;4.280;2022-08-23T04:10:04;18.90;99.90
23289;DHT22;11813;50.834;4.280;2022-08-23T04:12:31;18.90;99.90
23289;DHT22;11813;50.834;4.280;2022-08-23T04:14:56;18.90;99.90
23289;DHT22;11813;50.834;4.280;2022-08-23T04:17:22;18.90;99.90
23289;DHT22;11813;50.834;4.280;2022-08-23T04:19:48;18.80;99.90
23289;DHT22;11813;50.834;4.280;2022-08-23T04:22:15;18.80;99.90
23289;DHT22;11813;50.834;4.280;2022-08-23T04:24:41;18.70;99.90
23289;DHT22;11813;50.834;4.280;2022-08-23T04:27:07;18.70;99.90
23289;DHT22;11813;50.834;4.280;2022-08-23T04:29:34;18.70;99.90
23289;DHT22;11813;50.834;4.280;2022-08-23T04:32:00;18.70;99.90
23289;DHT22;11813;50.834;4.280;2022-08-23T04:34:27;18.60;99.90
23289;DHT22;11813;50.834;4.280;2022-08-23T04:36:52;18.60;99.90
23289;DHT22;11813;50.834;4.280;2022-08-23T04:39:18;18.60;99.90
23289;DHT22;11813;50.834;4.280;2022-08-23T04:41:43;18.60;99.90
23289;DHT22;11813;50.834;4.280;2022-08-23T04:44:28;18.50;99.90
23289;DHT22;11813;50.834;4.280;2022-08-23T04:46:53;18.40;99.90
23289;DHT22;11813;50.834;4.280;2022-08-23T04:49:19;18.40;99.90
23289;DHT22;11813;50.834;4.280;2022-08-23T04:51:47;18.50;99.90
23289;DHT22;11813;50.834;4.280;2022-08-23T04:54:13;18.50;99.90
23289;DHT22;11813;50.834;4.280;2022-08-23T04:56:39;18.60;99.90
23289;DHT22;11813;50.834;4.280;2022-08-23T04:59:05;18.50;99.90
23289;DHT22;11813;50.834;4.280;2022-08-23T05:01:32;18.50;99.90
23289;DHT22;11813;50.834;4.280;2022-08-23T05:03:59;18.50;99.90
23289;DHT22;11813;50.834;4.280;2022-08-23T05:06:26;18.50;99.90
23289;DHT22;11813;50.834;4.280;2022-08-23T05:08:52;18.60;99.90
23289;DHT22;11813;50.834;4.280;2022-08-23T05:11:17;18.60;99.90
23289;DHT22;11813;50.834;4.280;2022-08-23T05:13:43;18.60;99.90
23289;DHT22;11813;50.834;4.280;2022-08-23T05:16:09;18.60;99.90
23289;DHT22;11813;50.834;4.280;2022-08-23T05:18:35;18.60;99.90
23289;DHT22;11813;50.834;4.280;2022-08-23T05:21:01;18.60;99.90
23289;DHT22;11813;50.834;4.280;2022-08-23T05:23:26;18.50;99.90
23289;DHT22;11813;50.834;4.280;2022-08-23T05:25:53;18.50;99.90
23289;DHT22;11813;50.834;4.280;2022-08-23T05:28:28;18.60;99.90
23289;DHT22;11813;50.834;4.280;2022-08-23T05:30:58;18.60;99.90
23289;DHT22;11813;50.834;4.280;2022-08-23T05:33:25;18.60;99.90
23289;DHT22;11813;50.834;4.280;2022-08-23T05:35:51;18.60;99.90
23289;DHT22;11813;50.834;4.280;2022-08-23T05:38:17;18.50;99.90
23289;DHT22;11813;50.834;4.280;2022-08-23T05:40:43;18.60;99.90
23289;DHT22;11813;50.834;4.280;2022-08-23T05:43:09;18.60;99.90
23289;DHT22;11813;50.834;4.280;2022-08-23T05:45:35;18.50;99.90
23289;DHT22;11813;50.834;4.280;2022-08-23T05:48:01;18.70;99.90
23289;DHT22;11813;50.834;4.280;2022-08-23T05:50:26;18.70;99.90
23289;DHT22;11813;50.834;4.280;2022-08-23T05:52:52;18.80;99.90
23289;DHT22;11813;50.834;4.280;2022-08-23T05:55:18;18.90;99.90
23289;DHT22;11813;50.834;4.280;2022-08-23T05:57:43;18.80;99.90
23289;DHT22;11813;50.834;4.280;2022-08-23T06:00:10;18.80;99.90
23289;DHT22;11813;50.834;4.280;2022-08-23T06:02:40;18.90;99.90
23289;DHT22;11813;50.834;4.280;2022-08-23T06:05:07;19.00;99.90
23289;DHT22;11813;50.834;4.280;2022-08-23T06:07:34;19.10;99.90
23289;DHT22;11813;50.834;4.280;2022-08-23T06:10:00;19.10;99.90
23289;DHT22;11813;50.834;4.280;2022-08-23T06:12:26;19.20;99.90
23289;DHT22;11813;50.834;4.280;2022-08-23T06:14:51;19.20;99.90
23289;DHT22;11813;50.834;4.280;2022-08-23T06:17:17;19.30;99.90
23289;DHT22;11813;50.834;4.280;2022-08-23T06:19:43;19.40;99.90
23289;DHT22;11813;50.834;4.280;2022-08-23T06:22:08;19.50;99.90
23289;DHT22;11813;50.834;4.280;2022-08-23T06:24:34;19.60;99.90
23289;DHT22;11813;50.834;4.280;2022-08-23T06:27:00;19.70;99.90
23289;DHT22;11813;50.834;4.280;2022-08-23T06:29:26;19.80;99.90
23289;DHT22;11813;50.834;4.280;2022-08-23T06:31:52;19.90;99.90
23289;DHT22;11813;50.834;4.280;2022-08-23T06:36:48;20.00;99.90
23289;DHT22;11813;50.834;4.280;2022-08-23T06:39:15;20.10;99.90
23289;DHT22;11813;50.834;4.280;2022-08-23T06:41:42;20.20;99.90
23289;DHT22;11813;50.834;4.280;2022-08-23T06:44:08;20.40;99.90
23289;DHT22;11813;50.834;4.280;2022-08-23T06:46:34;20.60;99.90
23289;DHT22;11813;50.834;4.280;2022-08-23T06:49:00;20.80;99.90
23289;DHT22;11813;50.834;4.280;2022-08-23T06:51:35;20.90;99.90
23289;DHT22;11813;50.834;4.280;2022-08-23T06:54:05;20.90;99.90
23289;DHT22;11813;50.834;4.280;2022-08-23T06:56:31;21.00;99.90
23289;DHT22;11813;50.834;4.280;2022-08-23T06:58:57;21.20;99.90
23289;DHT22;11813;50.834;4.280;2022-08-23T07:03:55;21.50;99.90
23289;DHT22;11813;50.834;4.280;2022-08-23T07:06:22;21.60;99.90
23289;DHT22;11813;50.834;4.280;2022-08-23T07:08:48;21.70;99.90
23289;DHT22;11813;50.834;4.280;2022-08-23T07:11:14;21.90;99.90
23289;DHT22;11813;50.834;4.280;2022-08-23T07:13:40;22.00;99.90
23289;DHT22;11813;50.834;4.280;2022-08-23T07:16:06;22.20;99.90
23289;DHT22;11813;50.834;4.280;2022-08-23T07:18:31;22.20;99.90
23289;DHT22;11813;50.834;4.280;2022-08-23T07:20:59;22.20;99.90
23289;DHT22;11813;50.834;4.280;2022-08-23T07:23:26;22.20;99.90
23289;DHT22;11813;50.834;4.280;2022-08-23T07:25:52;22.40;99.90
23289;DHT22;11813;50.834;4.280;2022-08-23T07:28:18;22.50;99.90
23289;DHT22;11813;50.834;4.280;2022-08-23T07:30:44;22.60;99.90
23289;DHT22;11813;50.834;4.280;2022-08-23T07:33:10;22.80;99.90
23289;DHT22;11813;50.834;4.280;2022-08-23T07:35:35;22.90;99.90
23289;DHT22;11813;50.834;4.280;2022-08-23T07:38:01;23.10;99.90
23289;DHT22;11813;50.834;4.280;2022-08-23T07:40:27;23.30;99.90
23289;DHT22;11813;50.834;4.280;2022-08-23T07:42:55;23.50;99.90
23289;DHT22;11813;50.834;4.280;2022-08-23T07:45:20;23.60;99.90
23289;DHT22;11813;50.834;4.280;2022-08-23T07:47:46;23.50;99.90
23289;DHT22;11813;50.834;4.280;2022-08-23T07:50:12;23.50;99.90
23289;DHT22;11813;50.834;4.280;2022-08-23T07:52:37;23.60;99.90
23289;DHT22;11813;50.834;4.280;2022-08-23T07:55:03;23.50;99.90
23289;DHT22;11813;50.834;4.280;2022-08-23T07:57:29;23.60;99.90
23289;DHT22;11813;50.834;4.280;2022-08-23T07:59:54;23.70;99.90
23289;DHT22;11813;50.834;4.280;2022-08-23T08:02:20;23.80;99.90
23289;DHT22;11813;50.834;4.280;2022-08-23T08:04:47;23.90;99.90
23289;DHT22;11813;50.834;4.280;2022-08-23T08:07:12;24.00;99.90
23289;DHT22;11813;50.834;4.280;2022-08-23T08:09:38;24.00;99.90
23289;DHT22;11813;50.834;4.280;2022-08-23T08:12:04;24.10;99.90
23289;DHT22;11813;50.834;4.280;2022-08-23T08:14:29;24.20;99.90
23289;DHT22;11813;50.834;4.280;2022-08-23T08:16:55;24.30;99.90
23289;DHT22;11813;50.834;4.280;2022-08-23T08:19:22;24.50;99.90
23289;DHT22;11813;50.834;4.280;2022-08-23T08:21:48;24.70;99.90
23289;DHT22;11813;50.834;4.280;2022-08-23T08:24:15;24.70;99.90
23289;DHT22;11813;50.834;4.280;2022-08-23T08:26:41;24.80;99.90
23289;DHT22;11813;50.834;4.280;2022-08-23T08:29:08;24.90;99.90
23289;DHT22;11813;50.834;4.280;2022-08-23T08:31:38;25.10;99.90
23289;DHT22;11813;50.834;4.280;2022-08-23T08:34:06;25.00;99.90
23289;DHT22;11813;50.834;4.280;2022-08-23T08:36:44;25.20;99.90
23289;DHT22;11813;50.834;4.280;2022-08-23T08:39:12;25.40;99.90
23289;DHT22;11813;50.834;4.280;2022-08-23T08:47:01;25.50;99.90
23289;DHT22;11813;50.834;4.280;2022-08-23T08:49:48;25.50;99.90
23289;DHT22;11813;50.834;4.280;2022-08-23T08:52:26;25.70;99.90
23289;DHT22;11813;50.834;4.280;2022-08-23T08:55:27;25.80;99.90
23289;DHT22;11813;50.834;4.280;2022-08-23T08:57:54;25.80;99.90
23289;DHT22;11813;50.834;4.280;2022-08-23T09:00:31;25.70;99.90
23289;DHT22;11813;50.834;4.280;2022-08-23T09:02:58;25.80;99.90
23289;DHT22;11813;50.834;4.280;2022-08-23T09:05:32;26.00;99.90
23289;DHT22;11813;50.834;4.280;2022-08-23T09:13:34;25.80;99.90
23289;DHT22;11813;50.834;4.280;2022-08-23T09:16:26;25.80;99.90
23289;DHT22;11813;50.834;4.280;2022-08-23T09:18:53;26.00;99.90
23289;DHT22;11813;50.834;4.280;2022-08-23T09:21:19;26.00;99.90
23289;DHT22;11813;50.834;4.280;2022-08-23T09:23:47;26.10;99.90
23289;DHT22;11813;50.834;4.280;2022-08-23T09:26:24;26.10;99.90
23289;DHT22;11813;50.834;4.280;2022-08-23T09:29:02;26.10;99.90
23289;DHT22;11813;50.834;4.280;2022-08-23T09:34:04;26.60;99.90
23289;DHT22;11813;50.834;4.280;2022-08-23T09:36:35;26.80;99.90
23289;DHT22;11813;50.834;4.280;2022-08-23T09:41:35;27.10;99.90
23289;DHT22;11813;50.834;4.280;2022-08-23T09:44:10;27.10;99.90
23289;DHT22;11813;50.834;4.280;2022-08-23T09:46:38;27.40;99.90
23289;DHT22;11813;50.834;4.280;2022-08-23T09:49:25;27.40;99.90
23289;DHT22;11813;50.834;4.280;2022-08-23T09:51:52;27.50;99.90
23289;DHT22;11813;50.834;4.280;2022-08-23T09:56:55;27.60;99.90
23289;DHT22;11813;50.834;4.280;2022-08-23T10:01:54;27.90;99.90
23289;DHT22;11813;50.834;4.280;2022-08-23T10:04:24;28.10;99.90
23289;DHT22;11813;50.834;4.280;2022-08-23T10:06:54;28.40;99.90
23289;DHT22;11813;50.834;4.280;2022-08-23T10:11:47;28.80;99.90
23289;DHT22;11813;50.834;4.280;2022-08-23T10:14:17;28.90;99.90
23289;DHT22;11813;50.834;4.280;2022-08-23T10:19:30;29.00;99.90
23289;DHT22;11813;50.834;4.280;2022-08-23T10:30:21;28.70;99.90
23289;DHT22;11813;50.834;4.280;2022-08-23T10:33:22;28.50;99.90
23289;DHT22;11813;50.834;4.280;2022-08-23T10:35:58;28.40;99.90
23289;DHT22;11813;50.834;4.280;2022-08-23T10:44:23;27.90;99.90
23289;DHT22;11813;50.834;4.280;2022-08-23T10:47:14;27.90;99.90
23289;DHT22;11813;50.834;4.280;2022-08-23T10:49:41;28.00;99.90
23289;DHT22;11813;50.834;4.280;2022-08-23T10:52:11;28.10;99.90
23289;DHT22;11813;50.834;4.280;2022-08-23T10:54:48;28.40;99.90
23289;DHT22;11813;50.834;4.280;2022-08-23T10:57:31;28.80;99.90
23289;DHT22;11813;50.834;4.280;2022-08-23T10:59:58;28.90;99.90
23289;DHT22;11813;50.834;4.280;2022-08-23T11:05:23;29.00;99.90
23289;DHT22;11813;50.834;4.280;2022-08-23T11:10:32;28.70;99.90
23289;DHT22;11813;50.834;4.280;2022-08-23T11:13:01;28.60;99.90
23289;DHT22;11813;50.834;4.280;2022-08-23T11:15:41;28.80;99.90
23289;DHT22;11813;50.834;4.280;2022-08-23T11:20:59;29.20;99.90
23289;DHT22;11813;50.834;4.280;2022-08-23T11:23:38;29.30;99.90
23289;DHT22;11813;50.834;4.280;2022-08-23T11:26:08;29.70;99.90
23289;DHT22;11813;50.834;4.280;2022-08-23T11:28:42;29.60;99.90
23289;DHT22;11813;50.834;4.280;2022-08-23T11:31:28;29.90;99.90
23289;DHT22;11813;50.834;4.280;2022-08-23T11:34:23;30.30;99.90
23289;DHT22;11813;50.834;4.280;2022-08-23T11:40:05;30.90;99.90
23289;DHT22;11813;50.834;4.280;2022-08-23T11:48:05;31.20;99.90
23289;DHT22;11813;50.834;4.280;2022-08-23T11:56:11;31.60;99.90
23289;DHT22;11813;50.834;4.280;2022-08-23T11:59:03;31.80;99.90
23289;DHT22;11813;50.834;4.280;2022-08-23T12:01:34;31.50;99.90
23289;DHT22;11813;50.834;4.280;2022-08-23T12:04:40;31.40;99.90
23289;DHT22;11813;50.834;4.280;2022-08-23T12:06:58;31.70;99.90
23289;DHT22;11813;50.834;4.280;2022-08-23T12:19:51;31.80;99.90
23289;DHT22;11813;50.834;4.280;2022-08-23T12:22:24;31.30;99.90
23289;DHT22;11813;50.834;4.280;2022-08-23T12:24:51;31.60;99.90
23289;DHT22;11813;50.834;4.280;2022-08-23T12:27:41;31.30;99.90
23289;DHT22;11813;50.834;4.280;2022-08-23T12:32:55;31.30;99.90
23289;DHT22;11813;50.834;4.280;2022-08-23T12:38:08;31.40;99.90
23289;DHT22;11813;50.834;4.280;2022-08-23T12:40:36;31.60;99.90
23289;DHT22;11813;50.834;4.280;2022-08-23T12:45:49;31.80;99.90
23289;DHT22;11813;50.834;4.280;2022-08-23T12:48:17;31.70;99.90
23289;DHT22;11813;50.834;4.280;2022-08-23T12:50:56;31.90;99.90
23289;DHT22;11813;50.834;4.280;2022-08-23T12:53:32;31.70;99.90
23289;DHT22;11813;50.834;4.280;2022-08-23T12:56:05;31.80;99.90
23289;DHT22;11813;50.834;4.280;2022-08-23T12:58:34;31.80;99.90
23289;DHT22;11813;50.834;4.280;2022-08-23T13:01:05;31.80;99.90
23289;DHT22;11813;50.834;4.280;2022-08-23T13:03:43;31.70;99.90
23289;DHT22;11813;50.834;4.280;2022-08-23T13:06:14;31.50;99.90
23289;DHT22;11813;50.834;4.280;2022-08-23T13:08:58;31.70;99.90
23289;DHT22;11813;50.834;4.280;2022-08-23T13:11:26;31.90;99.90
23289;DHT22;11813;50.834;4.280;2022-08-23T13:13:53;32.30;99.90
23289;DHT22;11813;50.834;4.280;2022-08-23T13:16:42;32.80;99.90
23289;DHT22;11813;50.834;4.280;2022-08-23T13:19:26;33.10;99.90
23289;DHT22;11813;50.834;4.280;2022-08-23T13:24:43;34.20;99.90
23289;DHT22;11813;50.834;4.280;2022-08-23T13:27:21;34.60;99.90
23289;DHT22;11813;50.834;4.280;2022-08-23T13:29:52;34.50;99.90
23289;DHT22;11813;50.834;4.280;2022-08-23T13:32:39;34.30;99.90
23289;DHT22;11813;50.834;4.280;2022-08-23T13:37:54;34.10;99.90
23289;DHT22;11813;50.834;4.280;2022-08-23T13:40:37;33.80;99.90
23289;DHT22;11813;50.834;4.280;2022-08-23T13:43:06;33.70;99.90
23289;DHT22;11813;50.834;4.280;2022-08-23T13:45:35;33.30;99.90
23289;DHT22;11813;50.834;4.280;2022-08-23T13:48:06;33.30;99.90
23289;DHT22;11813;50.834;4.280;2022-08-23T13:50:35;33.20;99.90
23289;DHT22;11813;50.834;4.280;2022-08-23T13:53:02;32.60;99.90
23289;DHT22;11813;50.834;4.280;2022-08-23T13:55:28;32.30;99.90
23289;DHT22;11813;50.834;4.280;2022-08-23T13:57:55;32.50;99.90
23289;DHT22;11813;50.834;4.280;2022-08-23T14:00:22;33.30;99.90
23289;DHT22;11813;50.834;4.280;2022-08-23T14:02:47;33.10;99.90
23289;DHT22;11813;50.834;4.280;2022-08-23T14:05:16;32.90;99.90
23289;DHT22;11813;50.834;4.280;2022-08-23T14:07:43;33.40;99.90
23289;DHT22;11813;50.834;4.280;2022-08-23T14:10:10;33.70;99.90
23289;DHT22;11813;50.834;4.280;2022-08-23T14:12:36;34.00;99.90
23289;DHT22;11813;50.834;4.280;2022-08-23T14:15:03;34.40;99.90
23289;DHT22;11813;50.834;4.280;2022-08-23T14:17:37;34.90;99.90
23289;DHT22;11813;50.834;4.280;2022-08-23T14:20:04;35.00;99.90
23289;DHT22;11813;50.834;4.280;2022-08-23T14:22:32;35.40;99.90
23289;DHT22;11813;50.834;4.280;2022-08-23T14:24:58;35.50;99.90
23289;DHT22;11813;50.834;4.280;2022-08-23T14:27:23;35.60;99.90
23289;DHT22;11813;50.834;4.280;2022-08-23T14:29:49;35.40;99.90
23289;DHT22;11813;50.834;4.280;2022-08-23T14:32:15;35.10;99.90
23289;DHT22;11813;50.834;4.280;2022-08-23T14:34:40;34.90;99.90
23289;DHT22;11813;50.834;4.280;2022-08-23T14:37:06;35.10;99.90
23289;DHT22;11813;50.834;4.280;2022-08-23T14:39:31;35.50;99.90
23289;DHT22;11813;50.834;4.280;2022-08-23T14:41:57;35.40;99.90
23289;DHT22;11813;50.834;4.280;2022-08-23T14:44:23;35.40;99.90
23289;DHT22;11813;50.834;4.280;2022-08-23T14:46:48;35.40;99.90
23289;DHT22;11813;50.834;4.280;2022-08-23T14:49:14;35.40;99.90
23289;DHT22;11813;50.834;4.280;2022-08-23T14:51:42;35.60;99.90
23289;DHT22;11813;50.834;4.280;2022-08-23T14:54:21;35.20;99.90
23289;DHT22;11813;50.834;4.280;2022-08-23T14:56:47;35.00;99.90
23289;DHT22;11813;50.834;4.280;2022-08-23T14:59:13;35.20;99.90
23289;DHT22;11813;50.834;4.280;2022-08-23T15:01:39;35.20;99.90
23289;DHT22;11813;50.834;4.280;2022-08-23T15:04:06;35.50;99.90
23289;DHT22;11813;50.834;4.280;2022-08-23T15:06:32;35.70;99.90
23289;DHT22;11813;50.834;4.280;2022-08-23T15:08:58;35.90;99.90
23289;DHT22;11813;50.834;4.280;2022-08-23T15:11:23;35.70;99.90
23289;DHT22;11813;50.834;4.280;2022-08-23T15:13:49;35.80;99.90
23289;DHT22;11813;50.834;4.280;2022-08-23T15:16:16;36.30;99.90
23289;DHT22;11813;50.834;4.280;2022-08-23T15:18:45;36.30;99.90
23289;DHT22;11813;50.834;4.280;2022-08-23T15:21:12;36.20;99.90
23289;DHT22;11813;50.834;4.280;2022-08-23T15:23:39;36.10;99.90
23289;DHT22;11813;50.834;4.280;2022-08-23T15:26:05;35.90;99.90
23289;DHT22;11813;50.834;4.280;2022-08-23T15:28:31;35.70;99.90
23289;DHT22;11813;50.834;4.280;2022-08-23T15:30:57;35.60;99.90
23289;DHT22;11813;50.834;4.280;2022-08-23T15:33:25;35.70;99.90
23289;DHT22;11813;50.834;4.280;2022-08-23T15:35:51;35.50;99.90
23289;DHT22;11813;50.834;4.280;2022-08-23T15:38:17;35.50;99.90
23289;DHT22;11813;50.834;4.280;2022-08-23T15:40:43;35.70;99.90
23289;DHT22;11813;50.834;4.280;2022-08-23T15:43:09;35.80;99.80
23289;DHT22;11813;50.834;4.280;2022-08-23T15:45:35;36.10;99.90
23289;DHT22;11813;50.834;4.280;2022-08-23T15:48:01;36.30;99.60
23289;DHT22;11813;50.834;4.280;2022-08-23T15:50:32;36.10;99.90
23289;DHT22;11813;50.834;4.280;2022-08-23T15:52:58;35.70;99.90
23289;DHT22;11813;50.834;4.280;2022-08-23T15:55:29;35.60;99.90
23289;DHT22;11813;50.834;4.280;2022-08-23T15:57:55;35.90;99.90
23289;DHT22;11813;50.834;4.280;2022-08-23T16:00:23;36.30;99.90
23289;DHT22;11813;50.834;4.280;2022-08-23T16:02:50;36.50;99.30
23289;DHT22;11813;50.834;4.280;2022-08-23T16:05:16;36.20;99.60
23289;DHT22;11813;50.834;4.280;2022-08-23T16:07:42;35.60;99.90
23289;DHT22;11813;50.834;4.280;2022-08-23T16:10:09;35.60;99.90
23289;DHT22;11813;50.834;4.280;2022-08-23T16:12:37;35.50;99.90
23289;DHT22;11813;50.834;4.280;2022-08-23T16:15:03;35.40;99.90
23289;DHT22;11813;50.834;4.280;2022-08-23T16:17:29;35.20;99.90
23289;DHT22;11813;50.834;4.280;2022-08-23T16:19:54;34.50;99.90
23289;DHT22;11813;50.834;4.280;2022-08-23T16:22:20;34.30;99.90
23289;DHT22;11813;50.834;4.280;2022-08-23T16:24:46;34.10;99.90
23289;DHT22;11813;50.834;4.280;2022-08-23T16:27:11;33.80;99.90
23289;DHT22;11813;50.834;4.280;2022-08-23T16:29:37;33.90;99.90
23289;DHT22;11813;50.834;4.280;2022-08-23T16:32:06;34.20;99.90
23289;DHT22;11813;50.834;4.280;2022-08-23T16:34:33;34.50;99.90
23289;DHT22;11813;50.834;4.280;2022-08-23T16:37:01;34.50;99.90
23289;DHT22;11813;50.834;4.280;2022-08-23T16:39:29;34.00;99.90
23289;DHT22;11813;50.834;4.280;2022-08-23T16:41:57;33.90;99.90
23289;DHT22;11813;50.834;4.280;2022-08-23T16:44:24;34.00;99.90
23289;DHT22;11813;50.834;4.280;2022-08-23T16:46:50;34.10;99.90
23289;DHT22;11813;50.834;4.280;2022-08-23T16:49:16;34.10;99.90
23289;DHT22;11813;50.834;4.280;2022-08-23T16:51:44;33.90;99.90
23289;DHT22;11813;50.834;4.280;2022-08-23T16:54:10;34.00;99.90
23289;DHT22;11813;50.834;4.280;2022-08-23T16:56:37;33.70;99.90
23289;DHT22;11813;50.834;4.280;2022-08-23T16:59:06;33.20;99.90
23289;DHT22;11813;50.834;4.280;2022-08-23T17:01:44;33.00;99.90
23289;DHT22;11813;50.834;4.280;2022-08-23T17:04:10;32.70;99.90
23289;DHT22;11813;50.834;4.280;2022-08-23T17:06:37;32.40;99.90
23289;DHT22;11813;50.834;4.280;2022-08-23T17:09:03;32.20;99.90
23289;DHT22;11813;50.834;4.280;2022-08-23T17:11:29;32.00;99.90
23289;DHT22;11813;50.834;4.280;2022-08-23T17:13:55;31.70;99.90
23289;DHT22;11813;50.834;4.280;2022-08-23T17:16:21;31.50;99.90
23289;DHT22;11813;50.834;4.280;2022-08-23T17:18:48;31.20;99.90
23289;DHT22;11813;50.834;4.280;2022-08-23T17:21:14;30.80;99.90